sensor_id;sensor_type;location;lat;lon;timestamp;temperature;humidity
9157;DHT22;4613;48.392;9.998;2023-04-06T00:00:55;3.40;90.10
9157;DHT22;4613;48.392;9.998;2023-04-06T00:03:45;3.30;90.40
9157;DHT22;4613;48.392;9.998;2023-04-06T00:06:34;3.20;90.50
9157;DHT22;4613;48.392;9.998;2023-04-06T00:09:23;3.10;90.50
9157;DHT22;4613;48.392;9.998;2023-04-06T00:12:12;3.40;90.40
9157;DHT22;4613;48.392;9.998;2023-04-06T00:15:02;3.10;90.40
9157;DHT22;4613;48.392;9.998;2023-04-06T00:17:53;3.10;90.60
9157;DHT22;4613;48.392;9.998;2023-04-06T00:20:43;3.20;90.80
9157;DHT22;4613;48.392;9.998;2023-04-06T00:23:33;3.10;90.50
9157;DHT22;4613;48.392;9.998;2023-04-06T00:26:22;2.90;90.60
9157;DHT22;4613;48.392;9.998;2023-04-06T00:29:13;2.80;91.00
9157;DHT22;4613;48.392;9.998;2023-04-06T00:32:02;2.70;90.80
9157;DHT22;4613;48.392;9.998;2023-04-06T00:34:52;2.80;90.80
9157;DHT22;4613;48.392;9.998;2023-04-06T00:37:41;2.90;90.70
9157;DHT22;4613;48.392;9.998;2023-04-06T00:40:31;2.60;91.00
9157;DHT22;4613;48.392;9.998;2023-04-06T00:43:21;2.40;90.90
9157;DHT22;4613;48.392;9.998;2023-04-06T00:46:10;2.70;91.30
9157;DHT22;4613;48.392;9.998;2023-04-06T00:49:00;2.90;91.20
9157;DHT22;4613;48.392;9.998;2023-04-06T00:51:49;2.80;91.10
9157;DHT22;4613;48.392;9.998;2023-04-06T00:54:38;2.80;91.20
9157;DHT22;4613;48.392;9.998;2023-04-06T00:57:28;2.70;90.90
9157;DHT22;4613;48.392;9.998;2023-04-06T01:00:19;2.90;91.10
9157;DHT22;4613;48.392;9.998;2023-04-06T01:03:11;2.40;91.20
9157;DHT22;4613;48.392;9.998;2023-04-06T01:06:05;2.40;91.20
9157;DHT22;4613;48.392;9.998;2023-04-06T01:09:00;2.30;91.20
9157;DHT22;4613;48.392;9.998;2023-04-06T01:11:50;2.00;91.60
9157;DHT22;4613;48.392;9.998;2023-04-06T01:14:43;2.30;91.70
9157;DHT22;4613;48.392;9.998;2023-04-06T01:17:32;2.40;91.50
9157;DHT22;4613;48.392;9.998;2023-04-06T01:20:30;2.50;91.50
9157;DHT22;4613;48.392;9.998;2023-04-06T01:23:21;2.70;91.20
9157;DHT22;4613;48.392;9.998;2023-04-06T01:26:11;2.80;91.00
9157;DHT22;4613;48.392;9.998;2023-04-06T01:29:02;2.80;91.30
9157;DHT22;4613;48.392;9.998;2023-04-06T01:31:53;2.90;91.80
9157;DHT22;4613;48.392;9.998;2023-04-06T01:34:42;2.80;91.30
9157;DHT22;4613;48.392;9.998;2023-04-06T01:37:32;2.70;91.50
9157;DHT22;4613;48.392;9.998;2023-04-06T01:40:23;2.90;91.40
9157;DHT22;4613;48.392;9.998;2023-04-06T01:43:14;2.80;91.20
9157;DHT22;4613;48.392;9.998;2023-04-06T01:46:18;2.60;91.30
9157;DHT22;4613;48.392;9.998;2023-04-06T01:49:08;2.60;91.40
9157;DHT22;4613;48.392;9.998;2023-04-06T01:51:59;2.70;91.60
9157;DHT22;4613;48.392;9.998;2023-04-06T01:54:49;2.70;91.70
9157;DHT22;4613;48.392;9.998;2023-04-06T01:57:44;2.90;91.60
9157;DHT22;4613;48.392;9.998;2023-04-06T02:00:41;3.00;91.60
9157;DHT22;4613;48.392;9.998;2023-04-06T02:03:30;3.00;91.60
9157;DHT22;4613;48.392;9.998;2023-04-06T02:06:27;2.90;91.70
9157;DHT22;4613;48.392;9.998;2023-04-06T02:09:17;2.70;92.30
9157;DHT22;4613;48.392;9.998;2023-04-06T02:12:06;2.80;92.50
9157;DHT22;4613;48.392;9.998;2023-04-06T02:14:58;2.70;93.00
9157;DHT22;4613;48.392;9.998;2023-04-06T02:17:47;2.70;93.20
9157;DHT22;4613;48.392;9.998;2023-04-06T02:20:36;2.60;93.30
9157;DHT22;4613;48.392;9.998;2023-04-06T02:23:26;2.50;93.40
9157;DHT22;4613;48.392;9.998;2023-04-06T02:26:15;2.40;93.40
9157;DHT22;4613;48.392;9.998;2023-04-06T02:29:05;2.40;93.40
9157;DHT22;4613;48.392;9.998;2023-04-06T02:34:42;2.60;93.90
9157;DHT22;4613;48.392;9.998;2023-04-06T02:37:33;2.50;93.80
9157;DHT22;4613;48.392;9.998;2023-04-06T02:40:22;2.40;94.10
9157;DHT22;4613;48.392;9.998;2023-04-06T02:43:12;2.40;94.40
9157;DHT22;4613;48.392;9.998;2023-04-06T02:46:02;2.30;94.10
9157;DHT22;4613;48.392;9.998;2023-04-06T02:48:56;1.90;94.20
9157;DHT22;4613;48.392;9.998;2023-04-06T02:51:45;2.00;94.30
9157;DHT22;4613;48.392;9.998;2023-04-06T02:54:43;2.10;93.90
9157;DHT22;4613;48.392;9.998;2023-04-06T02:57:34;2.10;93.90
9157;DHT22;4613;48.392;9.998;2023-04-06T03:00:23;1.80;93.70
9157;DHT22;4613;48.392;9.998;2023-04-06T03:03:14;1.90;94.20
9157;DHT22;4613;48.392;9.998;2023-04-06T03:06:07;2.00;94.10
9157;DHT22;4613;48.392;9.998;2023-04-06T03:09:03;1.80;93.90
9157;DHT22;4613;48.392;9.998;2023-04-06T03:11:54;2.10;93.80
9157;DHT22;4613;48.392;9.998;2023-04-06T03:14:46;2.20;93.70
9157;DHT22;4613;48.392;9.998;2023-04-06T03:17:35;2.10;93.50
9157;DHT22;4613;48.392;9.998;2023-04-06T03:20:29;2.00;93.40
9157;DHT22;4613;48.392;9.998;2023-04-06T03:23:18;1.90;93.60
9157;DHT22;4613;48.392;9.998;2023-04-06T03:26:12;2.00;93.60
9157;DHT22;4613;48.392;9.998;2023-04-06T03:29:02;1.90;93.30
9157;DHT22;4613;48.392;9.998;2023-04-06T03:31:54;1.70;93.60
9157;DHT22;4613;48.392;9.998;2023-04-06T03:34:59;1.80;93.60
9157;DHT22;4613;48.392;9.998;2023-04-06T03:37:48;1.90;93.50
9157;DHT22;4613;48.392;9.998;2023-04-06T03:40:38;2.00;93.30
9157;DHT22;4613;48.392;9.998;2023-04-06T03:43:27;1.80;93.50
9157;DHT22;4613;48.392;9.998;2023-04-06T03:46:16;1.80;93.90
9157;DHT22;4613;48.392;9.998;2023-04-06T03:49:06;1.50;93.80
9157;DHT22;4613;48.392;9.998;2023-04-06T03:51:56;1.30;94.10
9157;DHT22;4613;48.392;9.998;2023-04-06T03:54:45;1.50;93.90
9157;DHT22;4613;48.392;9.998;2023-04-06T03:57:35;1.50;94.10
9157;DHT22;4613;48.392;9.998;2023-04-06T04:00:24;1.60;93.90
9157;DHT22;4613;48.392;9.998;2023-04-06T04:03:13;1.60;94.40
9157;DHT22;4613;48.392;9.998;2023-04-06T04:06:02;1.70;94.00
9157;DHT22;4613;48.392;9.998;2023-04-06T04:09:02;1.60;93.70
9157;DHT22;4613;48.392;9.998;2023-04-06T04:11:52;1.40;93.80
9157;DHT22;4613;48.392;9.998;2023-04-06T04:14:41;1.50;94.50
9157;DHT22;4613;48.392;9.998;2023-04-06T04:17:31;1.70;94.00
9157;DHT22;4613;48.392;9.998;2023-04-06T04:20:20;1.50;94.00
9157;DHT22;4613;48.392;9.998;2023-04-06T04:23:09;1.40;94.10
9157;DHT22;4613;48.392;9.998;2023-04-06T04:25:59;1.40;94.60
9157;DHT22;4613;48.392;9.998;2023-04-06T04:28:48;1.20;94.60
9157;DHT22;4613;48.392;9.998;2023-04-06T04:31:37;0.90;94.50
9157;DHT22;4613;48.392;9.998;2023-04-06T04:34:33;1.00;94.50
9157;DHT22;4613;48.392;9.998;2023-04-06T04:37:22;1.30;94.40
9157;DHT22;4613;48.392;9.998;2023-04-06T04:43:49;1.40;94.20
9157;DHT22;4613;48.392;9.998;2023-04-06T04:46:44;1.40;94.30
9157;DHT22;4613;48.392;9.998;2023-04-06T04:49:37;1.50;94.20
9157;DHT22;4613;48.392;9.998;2023-04-06T04:52:27;1.50;94.10
9157;DHT22;4613;48.392;9.998;2023-04-06T04:55:34;1.30;94.20
9157;DHT22;4613;48.392;9.998;2023-04-06T04:58:24;1.40;94.50
9157;DHT22;4613;48.392;9.998;2023-04-06T05:01:18;1.30;94.10
9157;DHT22;4613;48.392;9.998;2023-04-06T05:04:09;1.10;94.50
9157;DHT22;4613;48.392;9.998;2023-04-06T05:07:07;0.90;94.40
9157;DHT22;4613;48.392;9.998;2023-04-06T05:09:58;0.70;94.50
9157;DHT22;4613;48.392;9.998;2023-04-06T05:12:51;0.70;94.90
9157;DHT22;4613;48.392;9.998;2023-04-06T05:15:41;1.10;94.90
9157;DHT22;4613;48.392;9.998;2023-04-06T05:18:42;1.30;94.20
9157;DHT22;4613;48.392;9.998;2023-04-06T05:21:31;1.50;94.30
9157;DHT22;4613;48.392;9.998;2023-04-06T05:24:28;1.70;94.10
9157;DHT22;4613;48.392;9.998;2023-04-06T05:27:17;1.80;94.00
9157;DHT22;4613;48.392;9.998;2023-04-06T05:30:10;1.90;93.90
9157;DHT22;4613;48.392;9.998;2023-04-06T05:33:06;1.90;94.00
9157;DHT22;4613;48.392;9.998;2023-04-06T05:36:09;2.00;93.60
9157;DHT22;4613;48.392;9.998;2023-04-06T05:39:05;2.00;94.00
9157;DHT22;4613;48.392;9.998;2023-04-06T05:42:07;2.30;93.40
9157;DHT22;4613;48.392;9.998;2023-04-06T05:45:29;2.10;93.30
9157;DHT22;4613;48.392;9.998;2023-04-06T05:48:21;2.30;93.70
9157;DHT22;4613;48.392;9.998;2023-04-06T05:51:10;2.50;93.50
9157;DHT22;4613;48.392;9.998;2023-04-06T05:54:11;2.60;93.20
9157;DHT22;4613;48.392;9.998;2023-04-06T05:57:02;2.20;93.30
9157;DHT22;4613;48.392;9.998;2023-04-06T05:59:52;2.70;96.20
9157;DHT22;4613;48.392;9.998;2023-04-06T06:02:43;2.50;94.20
9157;DHT22;4613;48.392;9.998;2023-04-06T06:05:39;2.60;93.40
9157;DHT22;4613;48.392;9.998;2023-04-06T06:08:34;3.10;93.30
9157;DHT22;4613;48.392;9.998;2023-04-06T06:11:27;3.00;94.00
9157;DHT22;4613;48.392;9.998;2023-04-06T06:14:17;3.20;93.80
9157;DHT22;4613;48.392;9.998;2023-04-06T06:17:06;2.80;93.60
9157;DHT22;4613;48.392;9.998;2023-04-06T06:19:56;3.00;94.10
9157;DHT22;4613;48.392;9.998;2023-04-06T06:22:46;3.20;94.20
9157;DHT22;4613;48.392;9.998;2023-04-06T06:25:40;3.80;93.30
9157;DHT22;4613;48.392;9.998;2023-04-06T06:28:30;3.70;93.10
9157;DHT22;4613;48.392;9.998;2023-04-06T06:31:19;3.30;92.90
9157;DHT22;4613;48.392;9.998;2023-04-06T06:34:12;2.90;93.90
9157;DHT22;4613;48.392;9.998;2023-04-06T06:37:02;3.80;93.90
9157;DHT22;4613;48.392;9.998;2023-04-06T06:39:52;4.10;93.20
9157;DHT22;4613;48.392;9.998;2023-04-06T06:42:43;4.00;92.80
9157;DHT22;4613;48.392;9.998;2023-04-06T06:45:50;4.40;92.60
9157;DHT22;4613;48.392;9.998;2023-04-06T06:48:40;3.80;92.80
9157;DHT22;4613;48.392;9.998;2023-04-06T06:51:29;3.80;93.50
9157;DHT22;4613;48.392;9.998;2023-04-06T06:54:19;4.60;93.10
9157;DHT22;4613;48.392;9.998;2023-04-06T06:57:08;4.70;92.70
9157;DHT22;4613;48.392;9.998;2023-04-06T06:59:58;5.10;92.70
9157;DHT22;4613;48.392;9.998;2023-04-06T07:02:53;4.50;92.70
9157;DHT22;4613;48.392;9.998;2023-04-06T07:05:46;4.40;93.00
9157;DHT22;4613;48.392;9.998;2023-04-06T07:08:39;5.50;92.50
9157;DHT22;4613;48.392;9.998;2023-04-06T07:11:29;4.80;93.40
9157;DHT22;4613;48.392;9.998;2023-04-06T07:14:19;5.70;93.90
9157;DHT22;4613;48.392;9.998;2023-04-06T07:17:09;6.60;93.20
9157;DHT22;4613;48.392;9.998;2023-04-06T07:19:59;6.20;92.60
9157;DHT22;4613;48.392;9.998;2023-04-06T07:22:49;5.70;92.20
9157;DHT22;4613;48.392;9.998;2023-04-06T07:25:39;5.80;92.40
9157;DHT22;4613;48.392;9.998;2023-04-06T07:28:28;5.80;91.60
9157;DHT22;4613;48.392;9.998;2023-04-06T07:31:18;6.50;92.80
9157;DHT22;4613;48.392;9.998;2023-04-06T07:34:07;5.80;91.60
9157;DHT22;4613;48.392;9.998;2023-04-06T07:36:57;5.40;92.40
9157;DHT22;4613;48.392;9.998;2023-04-06T07:39:47;6.10;92.50
9157;DHT22;4613;48.392;9.998;2023-04-06T07:42:37;6.80;92.20
9157;DHT22;4613;48.392;9.998;2023-04-06T07:45:29;6.80;91.90
9157;DHT22;4613;48.392;9.998;2023-04-06T07:48:19;7.00;91.60
9157;DHT22;4613;48.392;9.998;2023-04-06T07:51:09;7.70;91.90
9157;DHT22;4613;48.392;9.998;2023-04-06T07:54:04;6.90;91.40
9157;DHT22;4613;48.392;9.998;2023-04-06T07:56:53;7.20;91.70
9157;DHT22;4613;48.392;9.998;2023-04-06T07:59:42;7.90;91.90
9157;DHT22;4613;48.392;9.998;2023-04-06T08:02:31;8.50;90.80
9157;DHT22;4613;48.392;9.998;2023-04-06T08:05:21;8.00;90.20
9157;DHT22;4613;48.392;9.998;2023-04-06T08:08:11;8.20;90.90
9157;DHT22;4613;48.392;9.998;2023-04-06T08:11:01;7.30;90.20
9157;DHT22;4613;48.392;9.998;2023-04-06T08:13:51;7.30;90.20
9157;DHT22;4613;48.392;9.998;2023-04-06T08:16:41;7.20;90.70
9157;DHT22;4613;48.392;9.998;2023-04-06T08:19:30;8.00;90.40
9157;DHT22;4613;48.392;9.998;2023-04-06T08:22:19;8.40;88.50
9157;DHT22;4613;48.392;9.998;2023-04-06T08:25:09;7.70;87.00
9157;DHT22;4613;48.392;9.998;2023-04-06T08:27:58;8.00;87.80
9157;DHT22;4613;48.392;9.998;2023-04-06T08:30:48;8.00;88.70
9157;DHT22;4613;48.392;9.998;2023-04-06T08:33:38;8.00;85.90
9157;DHT22;4613;48.392;9.998;2023-04-06T08:36:28;8.50;89.80
9157;DHT22;4613;48.392;9.998;2023-04-06T08:39:17;7.60;85.50
9157;DHT22;4613;48.392;9.998;2023-04-06T08:42:21;6.10;89.10
9157;DHT22;4613;48.392;9.998;2023-04-06T08:45:11;6.60;89.40
9157;DHT22;4613;48.392;9.998;2023-04-06T08:48:03;7.00;87.30
9157;DHT22;4613;48.392;9.998;2023-04-06T08:50:53;8.30;87.40
9157;DHT22;4613;48.392;9.998;2023-04-06T08:53:43;8.50;87.10
9157;DHT22;4613;48.392;9.998;2023-04-06T08:56:38;8.70;84.90
9157;DHT22;4613;48.392;9.998;2023-04-06T08:59:27;9.30;84.40
9157;DHT22;4613;48.392;9.998;2023-04-06T09:02:18;8.70;83.90
9157;DHT22;4613;48.392;9.998;2023-04-06T09:05:08;9.90;85.50
9157;DHT22;4613;48.392;9.998;2023-04-06T09:07:59;10.30;80.00
9157;DHT22;4613;48.392;9.998;2023-04-06T09:10:49;9.40;78.40
9157;DHT22;4613;48.392;9.998;2023-04-06T09:13:52;8.90;80.20
9157;DHT22;4613;48.392;9.998;2023-04-06T09:16:44;10.00;79.30
9157;DHT22;4613;48.392;9.998;2023-04-06T09:19:34;10.50;77.20
9157;DHT22;4613;48.392;9.998;2023-04-06T09:22:38;10.60;76.50
9157;DHT22;4613;48.392;9.998;2023-04-06T09:25:27;11.10;77.20
9157;DHT22;4613;48.392;9.998;2023-04-06T09:28:17;11.50;76.30
9157;DHT22;4613;48.392;9.998;2023-04-06T09:31:06;11.80;76.30
9157;DHT22;4613;48.392;9.998;2023-04-06T09:33:56;12.80;77.00
9157;DHT22;4613;48.392;9.998;2023-04-06T09:36:46;12.40;75.30
9157;DHT22;4613;48.392;9.998;2023-04-06T09:39:35;12.70;76.60
9157;DHT22;4613;48.392;9.998;2023-04-06T09:42:25;11.90;75.80
9157;DHT22;4613;48.392;9.998;2023-04-06T09:45:15;12.30;76.70
9157;DHT22;4613;48.392;9.998;2023-04-06T09:48:04;13.10;74.00
9157;DHT22;4613;48.392;9.998;2023-04-06T09:50:59;11.30;75.80
9157;DHT22;4613;48.392;9.998;2023-04-06T09:53:52;11.70;73.80
9157;DHT22;4613;48.392;9.998;2023-04-06T10:00:06;12.50;70.10
9157;DHT22;4613;48.392;9.998;2023-04-06T10:03:07;13.20;68.00
9157;DHT22;4613;48.392;9.998;2023-04-06T10:06:05;12.20;68.30
9157;DHT22;4613;48.392;9.998;2023-04-06T10:08:56;13.80;68.00
9157;DHT22;4613;48.392;9.998;2023-04-06T10:11:47;14.40;66.80
9157;DHT22;4613;48.392;9.998;2023-04-06T10:14:38;14.70;66.70
9157;DHT22;4613;48.392;9.998;2023-04-06T10:17:27;13.90;64.00
9157;DHT22;4613;48.392;9.998;2023-04-06T10:23:33;11.90;67.40
9157;DHT22;4613;48.392;9.998;2023-04-06T10:26:22;12.10;67.40
9157;DHT22;4613;48.392;9.998;2023-04-06T10:29:12;13.40;66.80
9157;DHT22;4613;48.392;9.998;2023-04-06T10:32:01;13.60;66.00
9157;DHT22;4613;48.392;9.998;2023-04-06T10:34:50;13.40;66.30
9157;DHT22;4613;48.392;9.998;2023-04-06T10:37:48;12.70;66.70
9157;DHT22;4613;48.392;9.998;2023-04-06T10:40:40;12.80;67.20
9157;DHT22;4613;48.392;9.998;2023-04-06T10:43:33;14.10;64.10
9157;DHT22;4613;48.392;9.998;2023-04-06T10:46:29;13.80;64.80
9157;DHT22;4613;48.392;9.998;2023-04-06T10:49:18;14.20;64.00
9157;DHT22;4613;48.392;9.998;2023-04-06T10:52:08;13.80;65.10
9157;DHT22;4613;48.392;9.998;2023-04-06T10:54:58;13.60;64.80
9157;DHT22;4613;48.392;9.998;2023-04-06T10:57:47;12.80;65.20
9157;DHT22;4613;48.392;9.998;2023-04-06T11:00:46;12.70;64.90
9157;DHT22;4613;48.392;9.998;2023-04-06T11:03:46;13.60;64.60
9157;DHT22;4613;48.392;9.998;2023-04-06T11:06:38;13.90;62.90
9157;DHT22;4613;48.392;9.998;2023-04-06T11:09:28;12.00;61.60
9157;DHT22;4613;48.392;9.998;2023-04-06T11:12:27;12.70;63.40
9157;DHT22;4613;48.392;9.998;2023-04-06T11:15:16;11.40;61.80
9157;DHT22;4613;48.392;9.998;2023-04-06T11:18:08;11.90;64.10
9157;DHT22;4613;48.392;9.998;2023-04-06T11:21:01;13.90;62.70
9157;DHT22;4613;48.392;9.998;2023-04-06T11:23:51;14.90;62.00
9157;DHT22;4613;48.392;9.998;2023-04-06T11:29:34;13.80;63.70
9157;DHT22;4613;48.392;9.998;2023-04-06T11:32:27;14.40;61.40
9157;DHT22;4613;48.392;9.998;2023-04-06T11:35:21;14.90;62.90
9157;DHT22;4613;48.392;9.998;2023-04-06T11:38:10;14.80;60.60
9157;DHT22;4613;48.392;9.998;2023-04-06T11:41:01;14.60;60.00
9157;DHT22;4613;48.392;9.998;2023-04-06T11:43:50;13.80;60.40
9157;DHT22;4613;48.392;9.998;2023-04-06T11:46:39;14.70;60.30
9157;DHT22;4613;48.392;9.998;2023-04-06T11:49:32;15.30;60.40
9157;DHT22;4613;48.392;9.998;2023-04-06T11:52:25;12.60;60.50
9157;DHT22;4613;48.392;9.998;2023-04-06T11:55:16;11.70;63.50
9157;DHT22;4613;48.392;9.998;2023-04-06T11:58:06;12.40;63.00
9157;DHT22;4613;48.392;9.998;2023-04-06T12:01:03;12.50;62.50
9157;DHT22;4613;48.392;9.998;2023-04-06T12:03:53;13.20;62.60
9157;DHT22;4613;48.392;9.998;2023-04-06T12:06:42;14.40;63.00
9157;DHT22;4613;48.392;9.998;2023-04-06T12:09:32;15.00;61.30
9157;DHT22;4613;48.392;9.998;2023-04-06T12:12:23;15.00;61.20
9157;DHT22;4613;48.392;9.998;2023-04-06T12:15:13;15.00;61.00
9157;DHT22;4613;48.392;9.998;2023-04-06T12:18:02;14.90;61.40
9157;DHT22;4613;48.392;9.998;2023-04-06T12:20:52;13.30;60.20
9157;DHT22;4613;48.392;9.998;2023-04-06T12:23:41;12.30;62.80
9157;DHT22;4613;48.392;9.998;2023-04-06T12:26:31;12.50;63.10
9157;DHT22;4613;48.392;9.998;2023-04-06T12:29:21;13.40;63.70
9157;DHT22;4613;48.392;9.998;2023-04-06T12:32:10;13.20;62.20
9157;DHT22;4613;48.392;9.998;2023-04-06T12:35:01;12.70;62.00
9157;DHT22;4613;48.392;9.998;2023-04-06T12:37:50;13.10;62.30
9157;DHT22;4613;48.392;9.998;2023-04-06T12:40:40;13.20;61.40
9157;DHT22;4613;48.392;9.998;2023-04-06T12:43:29;13.40;61.70
9157;DHT22;4613;48.392;9.998;2023-04-06T12:46:19;13.20;60.40
9157;DHT22;4613;48.392;9.998;2023-04-06T12:49:09;12.30;61.50
9157;DHT22;4613;48.392;9.998;2023-04-06T12:51:59;13.20;62.40
9157;DHT22;4613;48.392;9.998;2023-04-06T12:54:48;12.60;61.70
9157;DHT22;4613;48.392;9.998;2023-04-06T12:57:38;11.90;62.80
9157;DHT22;4613;48.392;9.998;2023-04-06T13:00:27;11.60;62.50
9157;DHT22;4613;48.392;9.998;2023-04-06T13:03:18;12.10;63.10
9157;DHT22;4613;48.392;9.998;2023-04-06T13:06:10;12.40;63.00
9157;DHT22;4613;48.392;9.998;2023-04-06T13:09:00;12.70;62.50
9157;DHT22;4613;48.392;9.998;2023-04-06T13:11:49;11.60;61.80
9157;DHT22;4613;48.392;9.998;2023-04-06T13:14:40;12.10;63.10
9157;DHT22;4613;48.392;9.998;2023-04-06T13:17:29;12.40;61.90
9157;DHT22;4613;48.392;9.998;2023-04-06T13:20:18;12.70;61.50
9157;DHT22;4613;48.392;9.998;2023-04-06T13:23:08;12.80;61.70
9157;DHT22;4613;48.392;9.998;2023-04-06T13:26:06;12.70;61.90
9157;DHT22;4613;48.392;9.998;2023-04-06T13:28:55;13.20;62.00
9157;DHT22;4613;48.392;9.998;2023-04-06T13:31:45;12.40;61.50
9157;DHT22;4613;48.392;9.998;2023-04-06T13:34:34;12.30;61.90
9157;DHT22;4613;48.392;9.998;2023-04-06T13:37:24;12.40;61.90
9157;DHT22;4613;48.392;9.998;2023-04-06T13:40:14;12.40;62.00
9157;DHT22;4613;48.392;9.998;2023-04-06T13:43:04;12.60;61.60
9157;DHT22;4613;48.392;9.998;2023-04-06T13:45:54;12.60;61.20
9157;DHT22;4613;48.392;9.998;2023-04-06T13:48:44;12.30;61.60
9157;DHT22;4613;48.392;9.998;2023-04-06T13:51:34;11.70;61.50
9157;DHT22;4613;48.392;9.998;2023-04-06T13:54:26;11.50;61.90
9157;DHT22;4613;48.392;9.998;2023-04-06T13:57:16;11.50;61.80
9157;DHT22;4613;48.392;9.998;2023-04-06T14:00:06;12.10;62.10
9157;DHT22;4613;48.392;9.998;2023-04-06T14:03:00;12.40;61.40
9157;DHT22;4613;48.392;9.998;2023-04-06T14:05:50;12.50;61.20
9157;DHT22;4613;48.392;9.998;2023-04-06T14:08:40;12.40;60.90
9157;DHT22;4613;48.392;9.998;2023-04-06T14:11:30;12.70;62.00
9157;DHT22;4613;48.392;9.998;2023-04-06T14:14:19;13.00;61.90
9157;DHT22;4613;48.392;9.998;2023-04-06T14:17:08;12.90;61.30
9157;DHT22;4613;48.392;9.998;2023-04-06T14:19:57;12.90;61.10
9157;DHT22;4613;48.392;9.998;2023-04-06T14:22:46;12.80;61.50
9157;DHT22;4613;48.392;9.998;2023-04-06T14:25:38;12.70;60.80
9157;DHT22;4613;48.392;9.998;2023-04-06T14:28:27;12.50;61.20
9157;DHT22;4613;48.392;9.998;2023-04-06T14:31:17;12.60;60.80
9157;DHT22;4613;48.392;9.998;2023-04-06T14:34:06;12.70;61.30
9157;DHT22;4613;48.392;9.998;2023-04-06T14:36:55;12.80;61.60
9157;DHT22;4613;48.392;9.998;2023-04-06T14:39:45;12.50;61.60
9157;DHT22;4613;48.392;9.998;2023-04-06T14:42:35;12.70;62.00
9157;DHT22;4613;48.392;9.998;2023-04-06T14:45:25;12.80;61.40
9157;DHT22;4613;48.392;9.998;2023-04-06T14:48:14;12.80;62.30
9157;DHT22;4613;48.392;9.998;2023-04-06T14:51:06;12.80;61.50
9157;DHT22;4613;48.392;9.998;2023-04-06T14:53:56;12.30;62.00
9157;DHT22;4613;48.392;9.998;2023-04-06T14:56:46;12.50;61.80
9157;DHT22;4613;48.392;9.998;2023-04-06T14:59:35;12.40;62.20
9157;DHT22;4613;48.392;9.998;2023-04-06T15:02:24;12.20;61.80
9157;DHT22;4613;48.392;9.998;2023-04-06T15:05:14;11.60;62.30
9157;DHT22;4613;48.392;9.998;2023-04-06T15:08:03;11.10;61.70
9157;DHT22;4613;48.392;9.998;2023-04-06T15:10:53;11.20;62.60
9157;DHT22;4613;48.392;9.998;2023-04-06T15:13:45;11.50;62.40
9157;DHT22;4613;48.392;9.998;2023-04-06T15:16:35;11.60;62.80
9157;DHT22;4613;48.392;9.998;2023-04-06T15:19:24;11.90;62.30
9157;DHT22;4613;48.392;9.998;2023-04-06T15:22:13;11.50;62.60
9157;DHT22;4613;48.392;9.998;2023-04-06T15:25:02;11.40;62.80
9157;DHT22;4613;48.392;9.998;2023-04-06T15:27:51;11.60;63.10
9157;DHT22;4613;48.392;9.998;2023-04-06T15:30:41;11.80;63.60
9157;DHT22;4613;48.392;9.998;2023-04-06T15:33:31;11.60;62.80
9157;DHT22;4613;48.392;9.998;2023-04-06T15:36:28;11.40;62.70
9157;DHT22;4613;48.392;9.998;2023-04-06T15:39:18;11.70;63.30
9157;DHT22;4613;48.392;9.998;2023-04-06T15:42:11;11.70;62.90
9157;DHT22;4613;48.392;9.998;2023-04-06T15:45:00;11.70;62.30
9157;DHT22;4613;48.392;9.998;2023-04-06T15:47:50;11.80;63.10
9157;DHT22;4613;48.392;9.998;2023-04-06T15:50:40;11.90;62.90
9157;DHT22;4613;48.392;9.998;2023-04-06T15:53:29;11.80;63.00
9157;DHT22;4613;48.392;9.998;2023-04-06T15:56:18;11.90;63.60
9157;DHT22;4613;48.392;9.998;2023-04-06T15:59:07;11.90;63.70
9157;DHT22;4613;48.392;9.998;2023-04-06T16:01:57;11.30;63.40
9157;DHT22;4613;48.392;9.998;2023-04-06T16:04:48;11.30;63.60
9157;DHT22;4613;48.392;9.998;2023-04-06T16:07:37;11.20;63.60
9157;DHT22;4613;48.392;9.998;2023-04-06T16:10:26;11.30;63.70
9157;DHT22;4613;48.392;9.998;2023-04-06T16:13:16;11.40;64.30
9157;DHT22;4613;48.392;9.998;2023-04-06T16:16:06;11.50;64.20
9157;DHT22;4613;48.392;9.998;2023-04-06T16:18:55;11.40;63.00
9157;DHT22;4613;48.392;9.998;2023-04-06T16:21:45;11.40;64.10
9157;DHT22;4613;48.392;9.998;2023-04-06T16:24:35;11.30;63.90
9157;DHT22;4613;48.392;9.998;2023-04-06T16:27:24;11.10;63.90
9157;DHT22;4613;48.392;9.998;2023-04-06T16:30:14;11.10;63.70
9157;DHT22;4613;48.392;9.998;2023-04-06T16:33:06;11.10;64.10
9157;DHT22;4613;48.392;9.998;2023-04-06T16:35:55;11.10;63.70
9157;DHT22;4613;48.392;9.998;2023-04-06T16:38:45;11.20;64.00
9157;DHT22;4613;48.392;9.998;2023-04-06T16:41:34;11.20;63.70
9157;DHT22;4613;48.392;9.998;2023-04-06T16:44:23;11.10;63.80
9157;DHT22;4613;48.392;9.998;2023-04-06T16:47:14;11.30;64.00
9157;DHT22;4613;48.392;9.998;2023-04-06T16:50:05;11.40;64.80
9157;DHT22;4613;48.392;9.998;2023-04-06T16:52:54;11.30;63.90
9157;DHT22;4613;48.392;9.998;2023-04-06T16:55:44;11.20;64.10
9157;DHT22;4613;48.392;9.998;2023-04-06T16:58:34;11.30;64.50
9157;DHT22;4613;48.392;9.998;2023-04-06T17:01:25;11.30;64.00
9157;DHT22;4613;48.392;9.998;2023-04-06T17:04:15;11.10;64.50
9157;DHT22;4613;48.392;9.998;2023-04-06T17:07:04;11.20;64.60
9157;DHT22;4613;48.392;9.998;2023-04-06T17:09:54;11.10;64.50
9157;DHT22;4613;48.392;9.998;2023-04-06T17:12:44;11.10;65.00
9157;DHT22;4613;48.392;9.998;2023-04-06T17:15:34;11.00;65.10
9157;DHT22;4613;48.392;9.998;2023-04-06T17:18:23;11.00;65.10
9157;DHT22;4613;48.392;9.998;2023-04-06T17:21:12;10.90;65.30
9157;DHT22;4613;48.392;9.998;2023-04-06T17:24:05;10.90;65.60
9157;DHT22;4613;48.392;9.998;2023-04-06T17:26:54;10.70;65.60
9157;DHT22;4613;48.392;9.998;2023-04-06T17:29:44;10.70;66.00
9157;DHT22;4613;48.392;9.998;2023-04-06T17:32:34;10.80;65.90
9157;DHT22;4613;48.392;9.998;2023-04-06T17:35:23;10.70;66.00
9157;DHT22;4613;48.392;9.998;2023-04-06T17:38:13;10.70;66.20
9157;DHT22;4613;48.392;9.998;2023-04-06T17:41:02;10.70;66.40
9157;DHT22;4613;48.392;9.998;2023-04-06T17:43:55;10.80;66.80
9157;DHT22;4613;48.392;9.998;2023-04-06T17:46:44;10.70;66.50
9157;DHT22;4613;48.392;9.998;2023-04-06T17:49:34;10.60;66.80
9157;DHT22;4613;48.392;9.998;2023-04-06T17:52:25;10.60;66.80
9157;DHT22;4613;48.392;9.998;2023-04-06T17:55:15;10.50;67.20
9157;DHT22;4613;48.392;9.998;2023-04-06T17:58:05;10.50;67.40
9157;DHT22;4613;48.392;9.998;2023-04-06T18:00:54;10.50;67.60
9157;DHT22;4613;48.392;9.998;2023-04-06T18:03:43;10.50;68.00
9157;DHT22;4613;48.392;9.998;2023-04-06T18:06:33;10.40;68.20
9157;DHT22;4613;48.392;9.998;2023-04-06T18:09:22;10.50;68.40
9157;DHT22;4613;48.392;9.998;2023-04-06T18:12:11;10.70;69.50
9157;DHT22;4613;48.392;9.998;2023-04-06T18:15:01;10.60;69.00
9157;DHT22;4613;48.392;9.998;2023-04-06T18:17:50;10.50;69.20
9157;DHT22;4613;48.392;9.998;2023-04-06T18:20:40;10.30;69.40
9157;DHT22;4613;48.392;9.998;2023-04-06T18:23:30;10.40;69.70
9157;DHT22;4613;48.392;9.998;2023-04-06T18:26:19;10.40;69.70
9157;DHT22;4613;48.392;9.998;2023-04-06T18:29:09;10.40;69.90
9157;DHT22;4613;48.392;9.998;2023-04-06T18:31:58;10.60;70.10
9157;DHT22;4613;48.392;9.998;2023-04-06T18:34:48;10.60;70.20
9157;DHT22;4613;48.392;9.998;2023-04-06T18:37:37;10.40;70.60
9157;DHT22;4613;48.392;9.998;2023-04-06T18:40:37;10.50;71.30
9157;DHT22;4613;48.392;9.998;2023-04-06T18:43:27;10.30;71.40
9157;DHT22;4613;48.392;9.998;2023-04-06T18:46:16;10.30;71.80
9157;DHT22;4613;48.392;9.998;2023-04-06T18:49:11;10.30;71.90
9157;DHT22;4613;48.392;9.998;2023-04-06T18:52:00;10.30;72.50
9157;DHT22;4613;48.392;9.998;2023-04-06T18:54:50;10.10;72.70
9157;DHT22;4613;48.392;9.998;2023-04-06T18:57:39;10.00;73.30
9157;DHT22;4613;48.392;9.998;2023-04-06T19:00:29;10.10;73.30